createdAt,value
2018-09-06T00:00:35.788Z,46.73
2018-09-06T00:03:04.094Z,44.63
2018-09-06T00:05:32.386Z,44.50
2018-09-06T00:08:00.697Z,37.80
2018-09-06T00:10:29.403Z,44.80
2018-09-06T00:12:57.715Z,40.17
2018-09-06T00:15:26.291Z,35.23
2018-09-06T00:17:54.844Z,37.20
2018-09-06T00:20:23.133Z,40.33
2018-09-06T00:22:51.470Z,35.80
2018-09-06T00:25:19.746Z,36.20
2018-09-06T00:27:48.223Z,36.05
2018-09-06T00:30:16.714Z,40.30
2018-09-06T00:32:44.987Z,38.83
2018-09-06T00:35:13.300Z,38.40
2018-09-06T00:37:41.746Z,28.33
2018-09-06T00:40:10.556Z,30.43
2018-09-06T00:42:39.268Z,34.40
2018-09-06T00:45:08.398Z,40.85
2018-09-06T00:47:36.680Z,35.83
2018-09-06T00:50:09.141Z,39.67
2018-09-06T00:52:37.571Z,26.50
2018-09-06T00:55:06.311Z,31.07
2018-09-06T00:57:34.923Z,39.67
2018-09-06T01:00:03.334Z,47.00
2018-09-06T01:02:31.583Z,51.98
2018-09-06T01:04:59.838Z,47.53
2018-09-06T01:07:28.722Z,45.27
2018-09-06T01:09:57.229Z,48.57
2018-09-06T01:12:25.629Z,49.80
2018-09-06T01:14:53.898Z,20.40
2018-09-06T01:17:22.145Z,46.70
2018-09-06T01:19:50.629Z,261.57
2018-09-06T01:22:19.263Z,20.70
2018-09-06T01:24:47.554Z,36.85
2018-09-06T01:27:16.205Z,36.83
2018-09-06T01:29:44.478Z,28.47
2018-09-06T01:32:12.749Z,33.27
2018-09-06T01:34:41.019Z,33.85
2018-09-06T01:37:10.167Z,42.60
2018-09-06T01:39:39.478Z,43.23
2018-09-06T01:42:08.698Z,46.93
2018-09-06T01:44:36.984Z,44.37
2018-09-06T01:47:05.442Z,50.20
2018-09-06T01:49:33.867Z,49.20
2018-09-06T01:52:02.173Z,50.25
2018-09-06T01:54:30.478Z,55.40
2018-09-06T01:56:58.742Z,61.80
2018-09-06T01:59:32.520Z,61.90
2018-09-06T02:02:00.824Z,68.57
2018-09-06T02:04:29.123Z,58.97
2018-09-06T02:06:57.415Z,47.05
2018-09-06T02:09:25.879Z,53.67
2018-09-06T02:11:54.137Z,55.45
2018-09-06T02:14:22.430Z,66.60
2018-09-06T02:16:51.409Z,70.40
2018-09-06T02:19:19.714Z,49.87
2018-09-06T02:21:47.995Z,58.77
2018-09-06T02:24:16.275Z,45.63
2018-09-06T02:26:45.007Z,55.40
2018-09-06T02:29:14.148Z,56.23
2018-09-06T02:31:42.553Z,57.43
2018-09-06T02:34:10.905Z,59.53
2018-09-06T02:36:39.177Z,54.23
2018-09-06T02:39:08.573Z,47.43
2018-09-06T02:41:37.146Z,37.37
2018-09-06T02:44:05.436Z,41.00
2018-09-06T02:46:33.618Z,43.70
2018-09-06T02:49:02.171Z,38.37
2018-09-06T02:51:30.466Z,37.50
2018-09-06T02:53:59.193Z,35.47
2018-09-06T02:56:27.341Z,38.97
2018-09-06T02:58:55.628Z,34.60
2018-09-06T03:01:23.930Z,41.33
2018-09-06T03:03:52.246Z,36.43
2018-09-06T03:06:20.522Z,37.20
2018-09-06T03:08:48.911Z,38.03
2018-09-06T03:11:24.317Z,36.88
2018-09-06T03:13:53.104Z,37.77
2018-09-06T03:16:21.346Z,32.33
2018-09-06T03:18:49.623Z,34.67
2018-09-06T03:21:17.941Z,31.77
2018-09-06T03:23:46.246Z,30.73
2018-09-06T03:26:19.934Z,31.87
2018-09-06T03:28:49.525Z,32.13
2018-09-06T03:31:18.042Z,31.90
2018-09-06T03:33:46.806Z,28.77
2018-09-06T03:36:15.375Z,32.25
2018-09-06T03:38:44.583Z,33.53
2018-09-06T03:41:12.852Z,33.07
2018-09-06T03:43:41.127Z,30.35
2018-09-06T03:46:09.823Z,32.90
2018-09-06T03:48:38.231Z,31.45
2018-09-06T03:51:07.194Z,33.43
2018-09-06T03:53:35.973Z,35.07
2018-09-06T03:56:04.237Z,32.30
2018-09-06T03:58:32.665Z,30.97
2018-09-06T04:01:00.937Z,38.47
2018-09-06T04:03:29.217Z,38.53
2018-09-06T04:05:57.933Z,38.98
2018-09-06T04:08:26.238Z,38.10
2018-09-06T04:10:54.537Z,38.10
2018-09-06T04:13:22.829Z,41.10
2018-09-06T04:15:51.706Z,40.30
2018-09-06T04:18:20.415Z,37.07
2018-09-06T04:20:48.637Z,36.63
2018-09-06T04:23:16.958Z,40.87
2018-09-06T04:25:45.397Z,37.98
2018-09-06T04:28:13.788Z,41.43
2018-09-06T04:30:42.093Z,39.30
2018-09-06T04:33:10.469Z,41.17
2018-09-06T04:35:38.850Z,36.67
2018-09-06T04:38:07.745Z,36.13
2018-09-06T04:40:36.097Z,36.50
2018-09-06T04:43:04.798Z,34.78
2018-09-06T04:45:33.033Z,31.07
2018-09-06T04:48:01.478Z,32.80
2018-09-06T04:50:29.851Z,27.63
2018-09-06T04:52:58.693Z,30.40
2018-09-06T04:55:27.051Z,31.87
2018-09-06T04:57:55.270Z,32.65
2018-09-06T05:00:23.559Z,32.13
2018-09-06T05:02:52.034Z,31.33
2018-09-06T05:05:21.059Z,31.33
2018-09-06T05:07:49.351Z,30.67
2018-09-06T05:10:17.597Z,29.60
2018-09-06T05:12:45.897Z,22.17
2018-09-06T05:15:14.543Z,20.20
2018-09-06T05:17:42.851Z,21.53
2018-09-06T05:20:11.498Z,20.27
2018-09-06T05:22:40.319Z,21.97
2018-09-06T05:25:08.629Z,19.43
2018-09-06T05:27:36.956Z,20.20
2018-09-06T05:30:05.721Z,15.20
2018-09-06T05:32:33.993Z,17.30
2018-09-06T05:35:02.281Z,19.30
2018-09-06T05:37:30.562Z,23.52
2018-09-06T05:40:00.074Z,21.57
2018-09-06T05:42:28.338Z,17.33
2018-09-06T05:44:56.614Z,9.83
2018-09-06T05:47:24.924Z,11.60
2018-09-06T05:49:53.170Z,13.10
2018-09-06T05:52:21.431Z,9.93
2018-09-06T05:54:50.161Z,15.03
2018-09-06T05:57:18.410Z,9.30
2018-09-06T05:59:46.752Z,14.73
2018-09-06T06:02:15.070Z,16.62
2018-09-06T06:04:43.329Z,6.37
2018-09-06T06:07:12.518Z,11.27
2018-09-06T06:09:40.801Z,10.00
2018-09-06T06:12:09.073Z,11.53
2018-09-06T06:14:37.370Z,20.17
2018-09-06T06:17:05.618Z,21.93
2018-09-06T06:19:34.030Z,14.97
2018-09-06T06:22:02.417Z,11.65
2018-09-06T06:24:30.877Z,10.53
2018-09-06T06:26:59.307Z,5.15
2018-09-06T06:29:27.935Z,2.03
2018-09-06T06:31:56.549Z,15.72
2018-09-06T06:34:25.285Z,2.10
2018-09-06T06:36:53.542Z,1.10
2018-09-06T06:39:21.861Z,8.43
2018-09-06T06:41:50.141Z,1999.90
2018-09-06T06:44:18.390Z,20.33
2018-09-06T06:46:47.815Z,22.93
2018-09-06T06:49:16.076Z,23.25
2018-09-06T06:51:44.388Z,21.90
2018-09-06T06:54:12.862Z,22.98
2018-09-06T06:56:41.231Z,22.43
2018-09-06T06:59:10.890Z,28.02
2018-09-06T07:01:39.462Z,25.30
2018-09-06T07:04:07.976Z,26.07
2018-09-06T07:06:36.287Z,27.50
2018-09-06T07:09:07.731Z,26.65
2018-09-06T07:11:36.092Z,27.30
2018-09-06T07:14:04.542Z,27.55
2018-09-06T07:16:32.883Z,29.77
2018-09-06T07:19:01.734Z,26.40
2018-09-06T07:21:30.227Z,28.50
2018-09-06T07:23:58.688Z,25.48
2018-09-06T07:26:27.082Z,24.77
2018-09-06T07:28:55.573Z,24.43
2018-09-06T07:31:24.241Z,23.33
2018-09-06T07:33:53.959Z,24.77
2018-09-06T07:36:22.640Z,27.47
2018-09-06T07:38:50.992Z,27.05
2018-09-06T07:43:56.472Z,23.37
2018-09-06T07:49:20.695Z,21.07
2018-09-06T07:51:48.969Z,24.43
2018-09-06T07:54:17.176Z,21.30
2018-09-06T07:56:45.389Z,22.77
2018-09-06T07:59:13.574Z,22.40
2018-09-06T08:01:41.948Z,23.47
2018-09-06T08:04:10.010Z,21.90
2018-09-06T08:06:38.280Z,20.63
2018-09-06T08:09:11.881Z,21.52
2018-09-06T08:11:40.873Z,22.33
2018-09-06T08:14:09.084Z,21.60
2018-09-06T08:16:37.371Z,30.33
2018-09-06T08:19:05.860Z,151.37
2018-09-06T08:21:36.184Z,81.13
2018-09-06T08:24:04.478Z,15.97
2018-09-06T08:26:33.726Z,16.90
2018-09-06T08:29:02.562Z,15.30
2018-09-06T08:31:30.955Z,17.95
2018-09-06T08:33:59.991Z,18.77
2018-09-06T08:36:28.274Z,15.70
2018-09-06T08:38:56.500Z,13.98
2018-09-06T08:41:24.759Z,15.73
2018-09-06T08:43:53.124Z,149.13
2018-09-06T08:46:21.421Z,118.53
2018-09-06T08:48:49.816Z,798.63
2018-09-06T08:51:18.285Z,1999.90
2018-09-06T08:53:46.593Z,1999.90
2018-09-06T08:56:14.824Z,9.87
2018-09-06T08:58:43.014Z,17.60
2018-09-06T09:01:47.184Z,216.53
2018-09-06T09:04:15.466Z,15.87
2018-09-06T09:06:43.728Z,16.80
2018-09-06T09:09:15.904Z,1999.90
2018-09-06T09:11:44.126Z,1999.90
2018-09-06T09:14:12.544Z,1999.90
2018-09-06T09:16:40.793Z,1999.90
2018-09-06T09:19:09.320Z,1999.90
2018-09-06T09:21:37.737Z,1999.90
2018-09-06T09:24:06.630Z,802.43
2018-09-06T09:26:35.607Z,15.27
2018-09-06T09:29:03.836Z,13.17
2018-09-06T09:31:32.168Z,13.00
2018-09-06T09:34:00.728Z,13.07
2018-09-06T09:36:30.406Z,11.65
2018-09-06T09:38:59.806Z,17.50
2018-09-06T09:41:29.488Z,12.80
2018-09-06T09:43:58.057Z,11.57
2018-09-06T09:51:22.096Z,15.70
2018-09-06T09:53:50.365Z,1999.90
2018-09-06T09:56:18.589Z,1999.90
2018-09-06T09:58:46.811Z,409.67
2018-09-06T10:01:15.437Z,1198.60
2018-09-06T10:08:24.573Z,1999.90
2018-09-06T10:10:52.742Z,9.33
2018-09-06T10:13:20.952Z,12.23
2018-09-06T10:15:49.565Z,302.10
2018-09-06T10:18:17.903Z,1999.90
2018-09-06T10:20:46.073Z,1999.90
2018-09-06T10:23:14.314Z,1999.90
2018-09-06T10:25:42.652Z,1999.90
2018-09-06T10:28:10.893Z,16.73
2018-09-06T10:30:39.786Z,19.40
2018-09-06T10:33:08.029Z,15.37
2018-09-06T10:35:36.241Z,11.00
2018-09-06T10:38:04.564Z,13.13
2018-09-06T10:40:32.839Z,13.93
2018-09-06T10:43:01.565Z,15.00
2018-09-06T10:45:30.620Z,12.87
2018-09-06T10:48:00.020Z,13.57
2018-09-06T10:50:28.826Z,1999.90
2018-09-06T10:52:57.040Z,152.65
2018-09-06T10:55:25.362Z,1999.90
2018-09-06T10:57:53.601Z,1999.90
2018-09-06T11:00:21.827Z,13.17
2018-09-06T11:02:50.244Z,12.33
2018-09-06T11:05:18.499Z,10.90
2018-09-06T11:07:46.771Z,12.23
2018-09-06T11:10:14.986Z,12.50
2018-09-06T11:12:43.220Z,11.80
2018-09-06T11:15:11.499Z,12.87
2018-09-06T11:17:39.695Z,12.20
2018-09-06T11:20:07.909Z,12.53
2018-09-06T11:22:36.481Z,12.47
2018-09-06T11:25:04.629Z,14.27
2018-09-06T11:27:33.115Z,12.40
2018-09-06T11:30:04.702Z,15.80
2018-09-06T11:32:33.057Z,13.67
2018-09-06T11:35:01.592Z,12.00
2018-09-06T11:37:30.184Z,15.60
2018-09-06T11:39:59.208Z,12.55
2018-09-06T11:42:28.272Z,15.17
2018-09-06T11:44:59.795Z,13.30
2018-09-06T11:47:28.870Z,11.43
2018-09-06T11:49:59.221Z,15.90
2018-09-06T11:52:28.123Z,12.67
2018-09-06T11:55:02.734Z,12.47
2018-09-06T11:57:31.757Z,15.03
2018-09-06T12:00:01.135Z,12.90
2018-09-06T12:02:30.014Z,13.73
2018-09-06T12:04:59.281Z,12.30
2018-09-06T12:07:27.594Z,13.63
2018-09-06T12:09:55.801Z,112.53
2018-09-06T12:12:23.996Z,43.13
2018-09-06T12:14:52.239Z,14.57
2018-09-06T12:17:20.502Z,1999.90
2018-09-06T12:19:48.937Z,13.88
2018-09-06T12:22:17.137Z,16.67
2018-09-06T12:24:45.381Z,16.67
2018-09-06T12:27:13.559Z,16.95
2018-09-06T12:29:41.962Z,14.57
2018-09-06T12:32:10.149Z,16.77
2018-09-06T12:34:38.407Z,13.05
2018-09-06T12:37:10.907Z,13.03
2018-09-06T12:39:39.108Z,13.37
2018-09-06T12:42:07.295Z,15.27
2018-09-06T12:44:35.708Z,393.37
2018-09-06T12:47:04.031Z,146.17
2018-09-06T12:49:32.444Z,252.10
2018-09-06T12:52:01.223Z,11.00
2018-09-06T12:54:35.363Z,10.93
2018-09-06T12:57:03.660Z,11.60
2018-09-06T12:59:32.014Z,11.57
2018-09-06T13:02:00.910Z,13.70
2018-09-06T13:04:30.028Z,12.00
2018-09-06T13:06:59.114Z,9.63
2018-09-06T13:09:28.024Z,10.07
2018-09-06T13:11:56.331Z,11.60
2018-09-06T13:14:24.889Z,20.83
2018-09-06T13:16:53.169Z,14.23
2018-09-06T13:19:21.361Z,12.07
2018-09-06T13:21:49.968Z,10.37
2018-09-06T13:24:18.272Z,11.73
2018-09-06T13:26:46.544Z,11.17
2018-09-06T13:29:14.834Z,12.27
2018-09-06T13:31:43.109Z,10.43
2018-09-06T13:34:11.329Z,12.80
2018-09-06T13:36:39.541Z,12.30
2018-09-06T13:39:09.371Z,12.00
2018-09-06T13:41:37.663Z,1999.90
2018-09-06T13:44:05.916Z,4.10
2018-09-06T13:46:34.124Z,1.90
2018-09-06T13:49:02.604Z,7.20
2018-09-06T13:51:31.380Z,8.40
2018-09-06T13:54:01.062Z,2.10
2018-09-06T13:56:30.284Z,2.20
2018-09-06T13:58:59.381Z,2.30
2018-09-06T14:01:27.685Z,5.97
2018-09-06T14:03:55.943Z,1.90
2018-09-06T14:06:24.221Z,1.90
2018-09-06T14:08:52.618Z,1.50
2018-09-06T14:11:20.869Z,4.17
2018-09-06T14:13:49.055Z,2.22
2018-09-06T14:16:19.296Z,3.57
2018-09-06T14:18:59.902Z,2.60
2018-09-06T14:21:29.486Z,2.00
2018-09-06T14:23:58.949Z,1.90
2018-09-06T14:26:27.114Z,1.90
2018-09-06T14:28:55.954Z,47.73
2018-09-06T14:31:24.172Z,4.27
2018-09-06T14:33:52.462Z,107.07
2018-09-06T14:36:20.751Z,10.07
2018-09-06T14:38:49.133Z,6.20
2018-09-06T14:41:17.208Z,5.03
2018-09-06T14:43:45.440Z,4.10
2018-09-06T14:46:13.645Z,3.10
2018-09-06T14:48:42.580Z,5.40
2018-09-06T14:51:10.826Z,55.43
2018-09-06T14:53:39.046Z,24.60
2018-09-06T14:56:07.404Z,15.95
2018-09-06T14:58:35.609Z,9.40
2018-09-06T15:03:54.321Z,5.10
2018-09-06T15:06:22.577Z,26.77
2018-09-06T15:08:50.832Z,6.60
2018-09-06T15:11:19.118Z,5.60
2018-09-06T15:13:47.399Z,32.33
2018-09-06T15:16:15.604Z,26.40
2018-09-06T15:18:43.835Z,21.27
2018-09-06T15:21:12.113Z,17.90
2018-09-06T15:23:40.394Z,17.60
2018-09-06T15:26:08.690Z,17.47
2018-09-06T15:28:37.121Z,15.90
2018-09-06T15:31:05.527Z,18.47
2018-09-06T15:33:33.884Z,12.23
2018-09-06T15:36:02.185Z,14.23
2018-09-06T15:38:30.922Z,9.50
2018-09-06T15:41:00.417Z,16.83
2018-09-06T15:43:29.895Z,82.65
2018-09-06T15:45:58.617Z,42.53
2018-09-06T15:48:26.896Z,11.75
2018-09-06T15:50:55.273Z,11.43
2018-09-06T15:53:23.514Z,22.30
2018-09-06T15:55:51.935Z,7.27
2018-09-06T15:58:20.583Z,6.40
2018-09-06T16:00:49.508Z,7.07
2018-09-06T16:03:17.961Z,6.67
2018-09-06T16:05:46.230Z,7.85
2018-09-06T16:08:14.573Z,5.50
2018-09-06T16:10:43.028Z,5.50
2018-09-06T16:13:11.264Z,40.00
2018-09-06T16:15:39.501Z,13.17
2018-09-06T16:18:08.125Z,10.10
2018-09-06T16:20:36.790Z,6.55
2018-09-06T16:23:05.226Z,5.70
2018-09-06T16:25:33.580Z,6.60
2018-09-06T16:28:02.068Z,8.10
2018-09-06T16:30:30.608Z,6.50
2018-09-06T16:33:00.441Z,20.23
2018-09-06T16:35:29.865Z,1999.90
2018-09-06T16:37:59.603Z,1999.90
2018-09-06T16:40:28.377Z,1999.90
2018-09-06T16:42:56.688Z,46.45
2018-09-06T16:45:25.005Z,55.60
2018-09-06T16:47:53.265Z,1999.90
2018-09-06T16:50:21.560Z,1999.90
2018-09-06T16:52:50.053Z,1999.90
2018-09-06T16:55:18.577Z,100.43
2018-09-06T16:57:46.901Z,13.53
2018-09-06T17:00:15.175Z,16.07
2018-09-06T17:02:43.434Z,34.40
2018-09-06T17:05:11.712Z,13.93
2018-09-06T17:07:40.056Z,13.30
2018-09-06T17:10:08.273Z,11.50
2018-09-06T17:12:36.581Z,9.98
2018-09-06T17:15:05.009Z,21.43
2018-09-06T17:17:34.167Z,8.43
2018-09-06T17:20:02.551Z,8.98
2018-09-06T17:22:30.983Z,5.40
2018-09-06T17:25:01.219Z,6.40
2018-09-06T17:27:30.110Z,4.50
2018-09-06T17:29:58.557Z,3.70
2018-09-06T17:32:26.977Z,3.62
2018-09-06T17:34:55.196Z,3.83
2018-09-06T17:37:24.103Z,4.07
2018-09-06T17:39:52.374Z,68.10
2018-09-06T17:42:20.963Z,15.33
2018-09-06T17:44:49.375Z,9.70
2018-09-06T17:47:17.966Z,9.78
2018-09-06T17:49:46.303Z,7.20
2018-09-06T17:52:14.566Z,8.53
2018-09-06T17:54:42.817Z,5.60
2018-09-06T17:57:11.066Z,5.30
2018-09-06T17:59:39.312Z,3.80
2018-09-06T18:02:07.554Z,17.95
2018-09-06T18:04:35.892Z,7.50
2018-09-06T18:07:04.252Z,5.08
2018-09-06T18:09:32.781Z,11.63
2018-09-06T18:12:01.286Z,4.95
2018-09-06T18:14:31.842Z,4.70
2018-09-06T18:17:01.733Z,4.20
2018-09-06T18:19:33.456Z,4.10
2018-09-06T18:22:02.252Z,5.53
2018-09-06T18:24:36.043Z,3.90
2018-09-06T18:27:04.415Z,3.80
2018-09-06T18:29:32.860Z,3.55
2018-09-06T18:32:01.534Z,3.77
2018-09-06T18:34:31.393Z,3.58
2018-09-06T18:37:01.066Z,3.50
2018-09-06T18:39:30.779Z,808.67
2018-09-06T18:42:00.840Z,1999.90
2018-09-06T18:44:30.773Z,1999.90
2018-09-06T18:47:00.214Z,1999.90
2018-09-06T18:49:29.476Z,1999.90
2018-09-06T18:51:57.867Z,1999.90
2018-09-06T18:54:26.217Z,1999.90
2018-09-06T18:56:54.545Z,16.70
2018-09-06T18:59:22.859Z,15.43
2018-09-06T19:01:51.148Z,14.10
2018-09-06T19:04:19.485Z,14.20
2018-09-06T19:06:50.969Z,12.60
2018-09-06T19:09:19.496Z,12.10
2018-09-06T19:11:48.148Z,11.45
2018-09-06T19:14:16.429Z,13.23
2018-09-06T19:16:50.724Z,12.05
2018-09-06T19:19:19.790Z,11.10
2018-09-06T19:21:48.117Z,10.20
2018-09-06T19:24:16.493Z,10.50
2018-09-06T19:26:44.943Z,12.73
2018-09-06T19:29:13.320Z,12.53
2018-09-06T19:31:41.676Z,11.13
2018-09-06T19:34:09.908Z,14.17
2018-09-06T19:36:38.166Z,11.38
2018-09-06T19:39:09.286Z,12.10
2018-09-06T19:41:37.544Z,11.37
2018-09-06T19:44:05.919Z,11.10
2018-09-06T19:46:34.331Z,10.80
2018-09-06T19:49:02.738Z,11.00
2018-09-06T19:51:31.329Z,13.05
2018-09-06T19:54:00.733Z,12.03
2018-09-06T19:56:29.909Z,10.58
2018-09-06T19:58:59.460Z,10.30
2018-09-06T20:01:28.721Z,13.73
2018-09-06T20:03:56.992Z,12.23
2018-09-06T20:06:25.271Z,12.37
2018-09-06T20:08:53.644Z,11.63
2018-09-06T20:11:22.658Z,13.07
2018-09-06T20:13:51.013Z,10.57
2018-09-06T20:16:19.467Z,10.40
2018-09-06T20:18:47.877Z,10.53
2018-09-06T20:21:16.150Z,10.78
2018-09-06T20:23:44.441Z,11.30
2018-09-06T20:26:12.965Z,10.87
2018-09-06T20:28:41.694Z,10.03
2018-09-06T20:31:32.413Z,9.73
2018-09-06T20:37:03.772Z,9.40
2018-09-06T20:39:38.538Z,12.10
2018-09-06T20:42:06.872Z,8.77
2018-09-06T20:44:35.469Z,9.60
2018-09-06T20:47:03.852Z,9.07
2018-09-06T20:49:38.246Z,8.30
2018-09-06T20:52:07.621Z,9.10
2018-09-06T20:54:36.169Z,7.87
2018-09-06T20:57:04.727Z,9.48
2018-09-06T20:59:33.226Z,8.10
2018-09-06T21:02:06.980Z,8.50
2018-09-06T21:04:35.487Z,9.43
2018-09-06T21:07:04.964Z,7.80
2018-09-06T21:09:33.561Z,8.13
2018-09-06T21:12:01.959Z,9.35
2018-09-06T21:14:31.448Z,9.53
2018-09-06T21:17:00.462Z,10.03
2018-09-06T21:19:30.375Z,7.67
2018-09-06T21:22:00.600Z,8.20
2018-09-06T21:24:29.566Z,8.47
2018-09-06T21:26:59.054Z,7.67
2018-09-06T21:29:27.624Z,9.20
2018-09-06T21:31:55.969Z,7.78
2018-09-06T21:34:24.408Z,8.90
2018-09-06T21:37:01.216Z,8.03
2018-09-06T21:39:29.856Z,11.13
2018-09-06T21:42:02.329Z,9.00
2018-09-06T21:44:35.512Z,9.17
2018-09-06T21:47:03.945Z,10.47
2018-09-06T21:49:32.438Z,10.50
2018-09-06T21:52:00.980Z,9.20
2018-09-06T21:54:31.293Z,10.08
2018-09-06T21:57:00.033Z,10.87
2018-09-06T21:59:28.501Z,12.05
2018-09-06T22:01:56.799Z,300.67
2018-09-06T22:04:25.075Z,10.58
2018-09-06T22:06:53.447Z,10.30
2018-09-06T22:09:21.776Z,12.45
2018-09-06T22:11:50.257Z,11.30
2018-09-06T22:14:19.397Z,11.00
2018-09-06T22:16:53.440Z,11.83
2018-09-06T22:19:21.938Z,12.00
2018-09-06T22:21:51.114Z,12.88
2018-09-06T22:24:19.443Z,12.43
2018-09-06T22:26:47.686Z,13.37
2018-09-06T22:29:15.919Z,10.43
2018-09-06T22:31:45.258Z,11.93
2018-09-06T22:34:13.528Z,13.63
2018-09-06T22:36:41.772Z,15.20
2018-09-06T22:39:10.232Z,15.78
2018-09-06T22:41:38.561Z,16.27
2018-09-06T22:44:08.192Z,18.55
2018-09-06T22:46:36.462Z,17.83
2018-09-06T22:49:04.773Z,16.20
2018-09-06T22:51:33.181Z,16.15
2018-09-06T22:54:01.574Z,16.93
2018-09-06T22:56:30.138Z,16.32
2018-09-06T22:58:59.366Z,17.00
2018-09-06T23:04:23.105Z,16.93
2018-09-06T23:06:51.365Z,15.63
2018-09-06T23:09:20.201Z,16.07
2018-09-06T23:11:48.500Z,15.67
2018-09-06T23:14:17.048Z,18.23
2018-09-06T23:16:46.288Z,16.40
2018-09-06T23:19:14.505Z,14.63
2018-09-06T23:21:42.826Z,15.20
2018-09-06T23:24:11.040Z,14.18
2018-09-06T23:26:40.013Z,13.73
2018-09-06T23:29:28.943Z,13.63
2018-09-06T23:31:57.170Z,14.40
2018-09-06T23:34:28.739Z,13.67
2018-09-06T23:36:56.976Z,13.53
2018-09-06T23:39:25.181Z,17.77
2018-09-06T23:41:53.433Z,15.05
2018-09-06T23:44:21.733Z,13.07
2018-09-06T23:46:50.861Z,13.33
2018-09-06T23:49:19.137Z,14.87
2018-09-06T23:51:47.557Z,14.40
2018-09-06T23:54:15.762Z,14.07
2018-09-06T23:56:44.055Z,12.77
2018-09-06T23:59:12.912Z,14.17
